Chalk, Texas
Current Conditions -  °F | °C
As of 11:20 PM on Wednesday 22 Oct 2014 (Local Time) from KCDS Reporting Station
Haze Haze  
Wind Chill: 17°   Ceiling: 3800
Heat Index: 17°   Visibility: 5mi
Dew Point: 16°   Wind: 7mph
Humidity: 93%   Direction: 150°SSE
Pressure: 30.13"   Gusts: NA
Location:  33.87°N, 100.22°W
Report Text: KCDS 230420Z AUTO 15006KT 5SM BR SCT004 BKN038 OVC050 17/16 A3013 RMK AO2 T01670156
Loading
Personal Weather Stations






























Interactive Weather Map
Tropical Storm Tracking
New forecast layout! Learn more

10-Day Weather Forecast

Advertisements
Track Severe Weather on mobile